Time;durP1;ratioP1;P1;durP2;ratioP2;P2;SDS_P1;SDS_P2;PMS_P1;PMS_P2;Temp;Humidity;BMP_temperature;BMP_pressure;BME280_temperature;BME280_humidity;BME280_pressure;Samples;Min_cycle;Max_cycle;Signal;HPM_P1;HPM_P2
2022/05/21 00:02:01;;;;;;;4.88;3.55;;;;;;;20.27;76.92;99035.44;5054635;27;102759;-74
2022/05/21 00:04:29;;;;;;;4.45;3.53;;;;;;;20.37;76.43;99036.16;5050849;27;103087;-74
2022/05/21 00:06:57;;;;;;;4.13;3.72;;;;;;;19.88;78.53;99040.47;5034633;27;102803;-74
2022/05/21 00:09:27;;;;;;;4.38;3.97;;;;;;;19.90;78.58;99043.81;5047801;27;103312;-74
2022/05/21 00:11:55;;;;;;;4.03;3.35;;;;;;;20.20;76.39;99043.28;5045894;27;104175;-74
2022/05/21 00:14:23;;;;;;;2.97;2.72;;;;;;;20.30;76.10;99045.00;5048936;27;102601;-74
2022/05/21 00:16:51;;;;;;;3.70;3.00;;;;;;;20.37;75.90;99054.09;5048085;27;102737;-74
2022/05/21 00:19:20;;;;;;;3.85;2.90;;;;;;;20.22;76.72;99054.69;5048232;27;103590;-74
2022/05/21 00:21:48;;;;;;;4.22;3.67;;;;;;;19.80;77.82;99063.72;5047225;27;103756;-74
2022/05/21 00:24:16;;;;;;;3.40;3.10;;;;;;;20.04;77.63;99064.66;5048834;27;103062;-74
2022/05/21 00:26:47;;;;;;;3.58;3.28;;;;;;;19.94;77.26;99072.00;5048472;27;103518;-74
2022/05/21 00:29:15;;;;;;;3.05;2.60;;;;;;;20.15;77.13;99067.03;5048506;27;103704;-74
2022/05/21 00:31:43;;;;;;;4.82;3.80;;;;;;;19.89;77.91;99073.50;5049989;27;103243;-74
2022/05/21 00:34:11;;;;;;;4.13;3.37;;;;;;;19.82;78.45;99073.28;5048620;27;102509;-74
2022/05/21 00:36:42;;;;;;;3.83;3.47;;;;;;;19.79;78.08;99070.91;5031796;27;104017;-74
2022/05/21 00:39:10;;;;;;;3.60;3.30;;;;;;;19.90;77.85;99070.63;5047697;27;103361;-74
2022/05/21 00:41:38;;;;;;;4.60;3.50;;;;;;;19.85;77.82;99077.47;5031322;27;103008;-74
2022/05/21 00:44:08;;;;;;;3.75;3.35;;;;;;;19.64;79.04;99072.53;5043458;27;104218;-74
2022/05/21 00:46:38;;;;;;;4.60;3.33;;;;;;;19.86;77.61;99079.16;5050597;27;103301;-75
2022/05/21 00:49:09;;;;;;;3.65;3.35;;;;;;;19.79;77.25;99081.63;5047434;27;103538;-74
2022/05/21 00:51:39;;;;;;;5.43;3.63;;;;;;;19.45;78.57;99081.59;5045528;27;103212;-74
2022/05/21 00:54:10;;;;;;;3.78;3.42;;;;;;;19.31;79.44;99086.69;5046602;27;103011;-74
2022/05/21 00:56:43;;;;;;;3.60;3.30;;;;;;;19.30;79.08;99093.88;5047978;27;103431;-74
2022/05/21 01:02:00;;;;;;;4.00;3.60;;;;;;;18.93;79.63;99102.13;5046497;27;103738;-74
2022/05/21 01:04:28;;;;;;;3.72;3.38;;;;;;;19.19;78.00;99101.31;5026419;27;102949;-74
2022/05/21 01:06:57;;;;;;;3.43;3.20;;;;;;;19.41;77.35;99106.19;5045245;27;104259;-74
2022/05/21 01:09:26;;;;;;;4.33;3.43;;;;;;;19.13;77.95;99107.28;5042978;27;103206;-74
2022/05/21 01:11:56;;;;;;;3.73;3.43;;;;;;;18.97;78.14;99111.53;5026665;27;103267;-74
2022/05/21 01:14:26;;;;;;;3.90;3.53;;;;;;;19.32;76.60;99115.13;5052462;27;102834;-74
2022/05/21 01:16:54;;;;;;;3.05;2.85;;;;;;;19.53;75.47;99107.63;5048081;27;103084;-74
2022/05/21 01:19:22;;;;;;;4.10;3.40;;;;;;;19.22;75.71;99117.94;5048517;27;104316;-74
2022/05/21 01:21:50;;;;;;;3.40;3.10;;;;;;;19.07;75.48;99114.97;5039111;27;103234;-74
2022/05/21 01:24:19;;;;;;;3.92;2.97;;;;;;;19.07;74.88;99117.63;5031905;27;102715;-74
2022/05/21 01:26:47;;;;;;;3.30;3.00;;;;;;;19.00;74.70;99119.22;5048767;27;104044;-74
2022/05/21 01:29:19;;;;;;;3.15;2.85;;;;;;;18.68;75.81;99113.59;5051832;27;104711;-74
2022/05/21 01:31:49;;;;;;;3.50;2.80;;;;;;;18.89;75.40;99113.28;5042803;27;103315;-74
2022/05/21 01:34:17;;;;;;;5.77;3.47;;;;;;;18.63;76.13;99115.03;5025308;27;103997;-74
2022/05/21 01:36:46;;;;;;;3.25;2.95;;;;;;;18.84;75.60;99127.13;5046614;27;103611;-74
2022/05/21 01:39:14;;;;;;;3.20;2.90;;;;;;;18.92;74.70;99121.84;5044497;27;104002;-74
2022/05/21 01:41:46;;;;;;;3.60;2.83;;;;;;;18.70;74.75;99135.66;5026594;27;103216;-74
2022/05/21 01:46:59;;;;;;;3.20;2.90;;;;;;;18.63;75.47;99142.63;5045621;27;103665;-74
2022/05/21 01:49:27;;;;;;;4.35;3.45;;;;;;;18.29;76.15;99150.41;5049246;27;104113;-74
2022/05/21 01:51:56;;;;;;;3.78;3.45;;;;;;;18.42;75.15;99152.72;5040731;27;102797;-74
2022/05/21 01:54:24;;;;;;;3.95;3.35;;;;;;;18.11;76.19;99154.00;5049895;27;102677;-74
2022/05/21 01:56:53;;;;;;;3.13;2.80;;;;;;;18.48;75.13;99154.81;5048259;27;103831;-74
2022/05/21 01:59:21;;;;;;;4.07;3.58;;;;;;;18.05;76.67;99162.63;5045673;27;103961;-74
2022/05/21 02:01:49;;;;;;;3.55;3.25;;;;;;;18.06;76.62;99162.47;5041023;27;103196;-74
2022/05/21 02:04:18;;;;;;;3.70;2.93;;;;;;;18.23;75.98;99166.19;5045670;27;102994;-73
2022/05/21 02:06:46;;;;;;;3.63;3.22;;;;;;;17.94;76.73;99163.63;5048120;27;102683;-74
2022/05/21 02:09:14;;;;;;;3.85;3.55;;;;;;;18.02;76.36;99176.28;5044926;27;103997;-74
2022/05/21 02:11:43;;;;;;;3.83;3.50;;;;;;;17.89;76.90;99174.75;5047512;27;103206;-73
2022/05/21 02:14:12;;;;;;;3.88;3.20;;;;;;;18.05;76.17;99179.47;5028255;27;102841;-74
2022/05/21 02:16:41;;;;;;;3.78;3.47;;;;;;;17.92;76.85;99185.16;5045825;27;102913;-74
2022/05/21 02:19:09;;;;;;;4.32;3.70;;;;;;;17.39;78.38;99189.31;5044296;27;103318;-74
2022/05/21 02:21:40;;;;;;;4.63;3.63;;;;;;;17.21;78.38;99199.00;5026868;27;102743;-74
2022/05/21 02:24:09;;;;;;;4.00;3.60;;;;;;;17.53;77.68;99199.56;5050437;27;102618;-74
2022/05/21 02:26:38;;;;;;;3.47;2.97;;;;;;;17.99;75.47;99203.31;5044350;27;102653;-74
2022/05/21 02:29:07;;;;;;;3.67;3.13;;;;;;;17.86;75.87;99214.28;5028727;27;103583;-74
2022/05/21 02:31:36;;;;;;;3.08;2.88;;;;;;;18.06;74.79;99207.06;5045290;27;103215;-74
2022/05/21 02:34:04;;;;;;;3.97;3.58;;;;;;;17.68;76.05;99208.03;5043316;27;102663;-73
2022/05/21 02:39:28;;;;;;;4.57;3.87;;;;;;;17.34;76.84;99213.78;5043085;27;103200;-74
2022/05/21 02:41:58;;;;;;;3.78;3.47;;;;;;;17.07;77.84;99216.28;5024950;27;104250;-74
2022/05/21 02:44:26;;;;;;;4.90;4.10;;;;;;;17.04;77.66;99223.75;5047743;27;103750;-74
2022/05/21 02:46:55;;;;;;;4.72;3.97;;;;;;;17.29;76.26;99217.88;5048912;27;103870;-74
2022/05/21 02:49:23;;;;;;;4.20;3.88;;;;;;;17.16;76.28;99219.94;5047510;27;103304;-74
2022/05/21 02:51:50;;;;;;;5.15;4.47;;;;;;;16.83;77.20;99221.19;5053125;27;103275;-74
2022/05/21 02:54:18;;;;;;;4.10;3.80;;;;;;;16.78;77.59;99229.59;5031080;27;102657;-74
2022/05/21 02:56:49;;;;;;;5.22;4.82;;;;;;;16.31;79.47;99227.56;5035216;27;103142;-74
2022/05/21 02:59:17;;;;;;;5.83;4.90;;;;;;;16.09;79.45;99231.28;5047194;27;104180;-73
2022/05/21 03:01:45;;;;;;;4.80;4.30;;;;;;;16.56;78.96;99229.81;5041053;27;103873;-74
2022/05/21 03:04:17;;;;;;;4.80;4.40;;;;;;;16.43;78.25;99234.50;5047282;27;102728;-74
2022/05/21 03:06:45;;;;;;;5.32;4.50;;;;;;;16.63;77.37;99233.63;5048178;27;102953;-74
2022/05/21 03:12:00;;;;;;;5.47;4.97;;;;;;;16.19;79.89;99242.00;5048682;27;103282;-74
2022/05/21 03:14:28;;;;;;;5.95;5.32;;;;;;;16.36;78.83;99244.03;5053937;27;103010;-73
2022/05/21 03:16:59;;;;;;;5.88;5.28;;;;;;;16.34;79.28;99242.44;5048791;27;103625;-74
2022/05/21 03:19:30;;;;;;;6.32;5.47;;;;;;;16.31;79.15;99246.22;5039192;27;104275;-74
2022/05/21 03:21:59;;;;;;;6.13;5.53;;;;;;;16.12;79.75;99244.34;5045277;27;103244;-73
2022/05/21 03:24:28;;;;;;;6.15;5.65;;;;;;;16.22;79.91;99253.22;5051074;27;103022;-73
2022/05/21 03:26:56;;;;;;;5.82;5.40;;;;;;;16.41;78.14;99252.47;5047060;27;103644;-73
2022/05/21 03:29:24;;;;;;;5.82;5.25;;;;;;;16.39;78.72;99265.09;5047800;27;103236;-73
2022/05/21 03:31:52;;;;;;;5.60;5.10;;;;;;;16.36;78.38;99265.38;5052007;27;103268;-73
2022/05/21 03:34:20;;;;;;;5.88;5.38;;;;;;;16.41;77.43;99257.81;5049827;27;102585;-73
2022/05/21 03:36:49;;;;;;;5.63;5.13;;;;;;;16.35;78.60;99258.34;5049866;27;103911;-73
2022/05/21 03:39:17;;;;;;;5.90;5.30;;;;;;;16.24;78.54;99263.75;5048223;27;103302;-73
2022/05/21 03:45:16;;;;;;;5.80;5.40;;;;;;;16.19;78.84;99252.66;5047564;27;103039;-73
2022/05/21 03:47:45;;;;;;;6.90;6.20;;;;;;;15.97;79.57;99260.81;5028493;27;103871;-73
2022/05/21 03:50:15;;;;;;;7.05;6.43;;;;;;;15.83;79.61;99261.16;5047454;27;103325;-74
2022/05/21 03:52:44;;;;;;;6.80;6.10;;;;;;;16.01;79.35;99271.06;5033196;27;103368;-73
2022/05/21 03:55:15;;;;;;;6.10;5.60;;;;;;;16.13;78.81;99275.34;5045649;27;102566;-73
2022/05/21 03:57:43;;;;;;;6.30;5.80;;;;;;;16.08;79.14;99276.72;5050257;27;104324;-73
2022/05/21 04:00:14;;;;;;;6.00;5.50;;;;;;;16.40;77.54;99284.59;5053419;27;104014;-77
2022/05/21 04:02:43;;;;;;;5.78;5.28;;;;;;;16.52;76.89;99286.19;5031029;27;104160;-75
2022/05/21 04:05:13;;;;;;;6.05;5.45;;;;;;;16.48;76.63;99280.28;5033651;27;102740;-76
2022/05/21 04:07:41;;;;;;;6.50;5.90;;;;;;;16.34;77.02;99280.63;5026628;27;103804;-76
2022/05/21 04:10:14;;;;;;;6.07;5.47;;;;;;;16.12;79.08;99294.13;5037574;27;103448;-77
2022/05/21 04:12:42;;;;;;;6.80;6.20;;;;;;;15.99;79.26;99289.00;5051784;27;103200;-76
2022/05/21 04:15:12;;;;;;;6.40;5.80;;;;;;;16.32;77.39;99289.75;5054420;27;102952;-77
2022/05/21 04:17:40;;;;;;;7.00;6.32;;;;;;;16.26;77.53;99285.78;5051359;27;103905;-76
2022/05/21 04:20:12;;;;;;;6.63;6.07;;;;;;;16.28;78.50;99283.00;5032495;27;104248;-76
2022/05/21 04:22:40;;;;;;;7.28;6.68;;;;;;;16.03;78.34;99278.91;5034162;27;104206;-77
2022/05/21 04:25:11;;;;;;;6.10;5.07;;;;;;;16.49;76.51;99271.31;5051909;27;102872;-77
2022/05/21 04:27:40;;;;;;;6.37;5.87;;;;;;;16.34;76.87;99274.44;5027948;27;103112;-77
2022/05/21 04:30:12;;;;;;;6.63;5.95;;;;;;;16.21;78.01;99278.19;5047426;27;103304;-77
2022/05/21 04:32:40;;;;;;;5.93;5.43;;;;;;;16.23;77.56;99278.91;5050417;27;103202;-77
2022/05/21 04:35:08;;;;;;;6.55;5.95;;;;;;;16.00;78.17;99281.88;5032435;27;102996;-77
2022/05/21 04:37:37;;;;;;;4.60;4.20;;;;;;;16.20;78.17;99284.50;5046848;27;103167;-77
2022/05/21 04:40:13;;;;;;;6.50;5.80;;;;;;;15.72;78.80;99285.19;5029009;27;104080;-76
2022/05/21 04:42:40;;;;;;;4.55;4.15;;;;;;;16.25;77.11;99289.44;5041686;27;103193;-77
2022/05/21 04:45:11;;;;;;;5.35;4.85;;;;;;;16.19;77.36;99296.16;5025595;27;102723;-77
2022/05/21 04:47:39;;;;;;;5.30;4.70;;;;;;;16.25;75.65;99294.78;5024847;27;104489;-77
2022/05/21 04:50:08;;;;;;;5.30;4.87;;;;;;;16.53;74.39;99296.75;5028760;27;104075;-77
2022/05/21 04:52:38;;;;;;;5.50;4.90;;;;;;;16.47;74.41;99294.63;5050161;27;103204;-77
2022/05/21 04:55:08;;;;;;;4.47;4.05;;;;;;;16.80;74.60;99294.34;5035618;27;102771;-72
2022/05/21 04:57:37;;;;;;;4.93;4.53;;;;;;;16.46;75.52;99292.91;5028546;27;104261;-73
2022/05/21 05:00:08;;;;;;;6.10;5.15;;;;;;;16.39;75.51;99302.44;5049617;27;103901;-76
2022/05/21 05:02:37;;;;;;;5.22;4.80;;;;;;;16.33;75.33;99302.97;5025288;27;103252;-75
2022/05/21 05:05:08;;;;;;;5.10;4.70;;;;;;;16.67;74.07;99296.38;5047412;27;102921;-75
2022/05/21 05:07:38;;;;;;;5.07;4.68;;;;;;;16.48;75.66;99296.28;5045984;27;102906;-75
2022/05/21 05:10:08;;;;;;;5.18;4.70;;;;;;;16.23;75.44;99304.72;5047961;27;103963;-74
2022/05/21 05:12:37;;;;;;;5.25;4.85;;;;;;;16.45;74.49;99301.06;5028563;27;104329;-74
2022/05/21 05:15:06;;;;;;;4.60;4.20;;;;;;;16.42;74.11;99301.31;5035022;27;102865;-71
2022/05/21 05:17:33;;;;;;;5.57;4.30;;;;;;;16.65;73.08;99303.69;5035088;27;103295;-71
2022/05/21 05:20:01;;;;;;;4.78;4.38;;;;;;;16.78;72.56;99304.31;5032175;27;103707;-72
2022/05/21 05:22:29;;;;;;;5.75;5.25;;;;;;;16.39;73.99;99313.09;5037375;27;103223;-71
2022/05/21 05:25:04;;;;;;;6.20;5.55;;;;;;;16.07;74.48;99310.53;5042570;27;102765;-71
2022/05/21 05:27:33;;;;;;;5.20;4.70;;;;;;;16.46;74.06;99308.91;5021871;27;102747;-71
2022/05/21 05:30:02;;;;;;;5.05;4.55;;;;;;;16.68;73.37;99302.56;5039221;27;103937;-71
2022/05/21 05:32:32;;;;;;;5.50;4.90;;;;;;;16.62;72.96;99298.63;5041211;27;102717;-71
2022/05/21 05:35:01;;;;;;;6.40;4.78;;;;;;;16.58;73.27;99302.56;5041684;27;102651;-71
2022/05/21 05:37:31;;;;;;;4.93;4.53;;;;;;;16.64;73.16;99302.03;5023730;27;102774;-71
2022/05/21 05:39:59;;;;;;;4.88;4.38;;;;;;;16.66;72.21;99305.38;5057069;27;104139;-71
2022/05/21 05:42:27;;;;;;;5.00;4.23;;;;;;;17.09;71.18;99298.91;5045228;27;103346;-71
2022/05/21 05:44:55;;;;;;;4.70;4.28;;;;;;;17.15;70.61;99306.38;5044830;27;102660;-69
2022/05/21 05:47:27;;;;;;;5.30;4.28;;;;;;;16.96;70.25;99303.66;5044773;27;102697;-69
2022/05/21 05:49:55;;;;;;;4.25;3.85;;;;;;;17.41;70.10;99302.19;5042304;27;103244;-69
2022/05/21 05:52:26;;;;;;;6.15;4.10;;;;;;;17.16;69.92;99302.72;5039276;27;103191;-69
2022/05/21 05:54:54;;;;;;;4.20;3.80;;;;;;;17.42;69.19;99309.22;5046077;27;102620;-69
2022/05/21 05:57:23;;;;;;;5.90;3.73;;;;;;;17.46;69.26;99312.47;5048964;27;104046;-70
2022/05/21 05:59:50;;;;;;;4.10;3.67;;;;;;;17.20;68.81;99310.34;5049304;27;104042;-69
2022/05/21 06:05:09;;;;;;;4.27;3.53;;;;;;;17.21;69.07;99309.31;5057328;27;102757;-69
2022/05/21 06:07:41;;;;;;;3.30;2.97;;;;;;;17.61;68.13;99308.41;5057387;27;102610;-70
2022/05/21 06:10:11;;;;;;;3.20;2.90;;;;;;;17.42;67.88;99319.91;5049649;27;104316;-70
2022/05/21 06:12:39;;;;;;;3.58;3.10;;;;;;;17.67;67.20;99319.41;5051113;27;103334;-70
2022/05/21 06:15:09;;;;;;;2.97;2.72;;;;;;;17.82;66.41;99315.28;5048867;27;102667;-70
2022/05/21 06:17:40;;;;;;;3.95;2.60;;;;;;;17.63;66.00;99317.97;5053129;27;102637;-70
2022/05/21 06:20:14;;;;;;;3.58;2.70;;;;;;;17.72;65.16;99322.47;5025505;27;104483;-70
2022/05/21 06:22:45;;;;;;;2.88;2.67;;;;;;;17.59;65.01;99337.97;5048582;27;103258;-70
2022/05/21 06:25:17;;;;;;;2.60;2.40;;;;;;;17.82;64.54;99328.66;5059175;27;102633;-70
2022/05/21 06:27:45;;;;;;;2.50;2.20;;;;;;;17.73;63.73;99337.53;5048127;27;103268;-70
2022/05/21 06:30:14;;;;;;;3.00;2.00;;;;;;;17.90;62.23;99330.63;5055777;27;104026;-70
2022/05/21 06:32:42;;;;;;;2.75;1.88;;;;;;;18.23;61.69;99332.00;5035764;27;103229;-70
2022/05/21 06:35:13;;;;;;;2.20;1.70;;;;;;;17.79;62.90;99325.44;5058292;27;103067;-70
2022/05/21 06:37:41;;;;;;;3.07;2.07;;;;;;;18.08;62.33;99325.44;5037686;27;104238;-70
2022/05/21 06:40:11;;;;;;;2.80;1.80;;;;;;;18.31;60.50;99326.75;5038355;27;103808;-70
2022/05/21 06:42:40;;;;;;;2.38;1.80;;;;;;;18.26;60.37;99321.84;5039523;27;104406;-70
2022/05/21 06:45:09;;;;;;;3.23;2.10;;;;;;;18.04;60.10;99321.34;5064186;27;102592;-71
2022/05/21 06:47:37;;;;;;;2.00;1.40;;;;;;;18.35;60.87;99328.19;5053436;27;103835;-70
2022/05/21 06:50:07;;;;;;;2.43;1.70;;;;;;;18.67;59.43;99325.97;5050618;27;103895;-71
2022/05/21 06:52:39;;;;;;;2.40;1.50;;;;;;;19.11;59.53;99322.53;5050367;27;103130;-70
2022/05/21 06:55:12;;;;;;;2.05;1.80;;;;;;;18.89;57.67;99332.81;5049603;27;102723;-71
2022/05/21 06:57:40;;;;;;;4.13;1.70;;;;;;;19.18;57.76;99325.44;5053377;27;102973;-69
2022/05/21 07:00:11;;;;;;;1.90;1.67;;;;;;;19.35;56.18;99332.69;5056325;27;103324;-71
2022/05/21 07:02:40;;;;;;;2.78;1.40;;;;;;;19.24;57.57;99332.88;5048063;27;103265;-71
2022/05/21 07:07:58;;;;;;;1.95;1.55;;;;;;;19.39;57.46;99341.28;5055313;27;102681;-70
2022/05/21 07:10:29;;;;;;;3.00;1.50;;;;;;;18.94;55.65;99334.06;5035980;27;103860;-77
2022/05/21 07:12:59;;;;;;;2.80;1.53;;;;;;;19.01;56.78;99335.13;5052302;27;103167;-77
2022/05/21 07:15:28;;;;;;;2.03;1.40;;;;;;;19.04;56.03;99329.47;5053726;27;102892;-77
2022/05/21 07:18:01;;;;;;;1.98;1.20;;;;;;;19.42;55.63;99343.69;5046267;27;103946;-76
2022/05/21 07:20:29;;;;;;;2.00;1.27;;;;;;;19.51;54.88;99343.59;5047153;27;103896;-76
2022/05/21 07:23:00;;;;;;;1.42;1.23;;;;;;;19.65;55.12;99351.09;5042326;27;103225;-75
2022/05/21 07:25:30;;;;;;;3.67;1.53;;;;;;;20.08;53.99;99344.13;5043696;27;103618;-76
2022/05/21 07:27:58;;;;;;;2.35;1.10;;;;;;;20.19;52.82;99338.50;5048330;27;102912;-74
2022/05/21 07:30:27;;;;;;;2.25;1.02;;;;;;;19.98;52.98;99327.28;5049681;27;103281;-73
2022/05/21 07:32:55;;;;;;;1.00;0.82;;;;;;;20.19;52.60;99322.41;5046904;27;102552;-74
2022/05/21 07:35:25;;;;;;;2.08;1.02;;;;;;;19.81;53.11;99317.41;5055543;27;102837;-74
2022/05/21 07:37:53;;;;;;;2.55;1.00;;;;;;;19.55;52.87;99325.38;5048351;27;102789;-74
2022/05/21 07:40:25;;;;;;;1.10;1.00;;;;;;;19.59;52.77;99321.41;5044327;27;103330;-75
2022/05/21 07:42:53;;;;;;;2.60;0.90;;;;;;;19.63;55.31;99306.69;5047157;27;103194;-75
2022/05/21 07:45:21;;;;;;;3.07;1.73;;;;;;;20.10;52.95;99308.09;5049571;27;102938;-75
2022/05/21 07:47:51;;;;;;;1.77;1.00;;;;;;;20.61;50.33;99318.03;5046323;27;103742;-74
2022/05/21 07:50:20;;;;;;;1.50;0.90;;;;;;;20.39;51.37;99313.19;5045336;27;103278;-75
2022/05/21 07:52:48;;;;;;;1.67;0.90;;;;;;;21.49;48.93;99319.41;5048652;27;103170;-74
2022/05/21 07:55:16;;;;;;;2.22;1.10;;;;;;;21.80;48.25;99317.78;5047104;27;102606;-74
2022/05/21 07:57:46;;;;;;;1.80;1.20;;;;;;;21.83;47.97;99311.22;5044868;27;103195;-74
2022/05/21 08:00:17;;;;;;;2.50;1.08;;;;;;;20.02;53.28;99329.50;5038845;27;103101;-74
2022/05/21 08:02:49;;;;;;;2.47;1.20;;;;;;;19.41;54.57;99331.25;5053430;27;103267;-75
2022/05/21 08:05:19;;;;;;;1.33;0.87;;;;;;;21.66;49.45;99325.66;5051161;27;102831;-76
2022/05/21 08:07:50;;;;;;;2.30;0.87;;;;;;;21.89;48.70;99324.03;5052792;27;102734;-75
2022/05/21 08:10:18;;;;;;;1.80;0.90;;;;;;;21.57;48.86;99327.47;5037038;27;104441;-75
2022/05/21 08:12:48;;;;;;;2.88;0.93;;;;;;;22.41;47.44;99319.94;5053294;27;103476;-73
2022/05/21 08:15:17;;;;;;;2.22;1.13;;;;;;;21.76;48.47;99315.56;5045785;27;103127;-73
2022/05/21 08:17:44;;;;;;;2.28;1.13;;;;;;;21.52;48.90;99312.84;5029784;27;103871;-74
2022/05/21 08:20:14;;;;;;;1.70;1.10;;;;;;;20.29;49.87;99317.00;5032579;27;104220;-74
2022/05/21 08:28:15;;;;;;;1.70;1.10;;;;;;;20.55;49.34;99323.19;5025955;27;103939;-75
2022/05/21 08:30:45;;;;;;;2.40;1.20;;;;;;;21.20;48.39;99319.81;5042126;27;103367;-74
2022/05/21 08:33:13;;;;;;;1.85;0.98;;;;;;;20.71;50.29;99317.91;5041958;27;103631;-75
2022/05/21 08:35:42;;;;;;;2.13;1.15;;;;;;;22.24;47.13;99309.38;5045728;27;102693;-75
2022/05/21 08:38:11;;;;;;;1.52;0.73;;;;;;;24.00;45.94;99306.06;5041409;27;103794;-75
2022/05/21 08:40:44;;;;;;;2.15;0.80;;;;;;;23.15;45.36;99301.72;5021701;27;103852;-75
2022/05/21 08:43:20;;;;;;;2.10;0.93;;;;;;;21.59;48.69;99305.78;5025192;27;103051;-72
2022/05/21 08:46:06;;;;;;;1.40;0.90;;;;;;;22.87;46.35;99301.34;5040854;27;102585;-70
2022/05/21 08:48:34;;;;;;;2.22;1.13;;;;;;;22.76;47.21;99305.25;5040764;27;103823;-73
2022/05/21 08:51:07;;;;;;;2.00;1.10;;;;;;;22.40;47.85;99310.19;5041399;27;103556;-71
2022/05/21 08:53:49;;;;;;;2.97;1.15;;;;;;;24.06;46.53;99303.47;5045356;27;103197;-71
2022/05/21 08:56:19;;;;;;;3.10;1.20;;;;;;;24.64;44.87;99302.78;5046644;27;102848;-71
2022/05/21 08:58:53;;;;;;;2.50;1.10;;;;;;;22.52;48.92;99308.81;5042304;27;102731;-72
2022/05/21 09:01:24;;;;;;;3.47;1.90;;;;;;;23.13;46.85;99301.88;5040154;27;103845;-72
2022/05/21 09:03:54;;;;;;;2.25;1.42;;;;;;;23.29;48.07;99299.13;5041674;27;103255;-71
2022/05/21 09:06:35;;;;;;;1.90;1.30;;;;;;;23.70;47.65;99294.31;5023197;27;102666;-71
2022/05/21 09:09:17;;;;;;;1.60;1.10;;;;;;;24.36;44.39;99296.31;5026030;27;104034;-72
2022/05/21 09:11:49;;;;;;;2.97;1.57;;;;;;;24.44;44.60;99293.53;5044224;27;103250;-72
2022/05/21 09:14:31;;;;;;;3.70;1.20;;;;;;;23.28;46.88;99300.13;5026226;27;103196;-72
2022/05/21 09:17:00;;;;;;;3.17;1.30;;;;;;;23.30;46.14;99287.31;5040545;27;102752;-72
2022/05/21 09:19:34;;;;;;;1.90;1.20;;;;;;;23.71;46.19;99289.75;5049544;27;103575;-71
2022/05/21 09:22:05;;;;;;;2.45;1.30;;;;;;;24.59;45.34;99280.03;5042896;27;103266;-72
2022/05/21 09:24:41;;;;;;;3.30;1.40;;;;;;;23.34;45.20;99282.41;5047382;27;103308;-72
2022/05/21 09:27:32;;;;;;;1.92;1.20;;;;;;;23.99;44.37;99266.59;5024135;27;102741;-72
2022/05/21 09:30:21;;;;;;;1.70;0.93;;;;;;;23.50;43.39;99277.78;5048270;27;103482;-72
2022/05/21 09:32:52;;;;;;;4.15;2.42;;;;;;;22.96;48.18;99276.06;5028114;27;104320;-72
2022/05/21 09:35:23;;;;;;;2.85;1.27;;;;;;;24.90;44.63;99277.97;5027996;27;103363;-71
2022/05/21 09:37:52;;;;;;;4.30;1.80;;;;;;;22.88;48.25;99276.91;5026484;27;102608;-71
2022/05/21 09:40:31;;;;;;;3.70;1.25;;;;;;;24.19;45.24;99276.75;5025800;27;104662;-71
2022/05/21 09:45:46;;;;;;;1.43;1.10;;;;;;;22.57;47.28;99277.84;5037540;27;104071;-72
2022/05/21 09:48:18;;;;;;;1.77;1.13;;;;;;;22.09;50.10;99268.84;5046091;27;102855;-71
2022/05/21 09:50:49;;;;;;;3.28;1.40;;;;;;;23.50;46.94;99256.19;5043944;27;105346;-71
2022/05/21 09:53:24;;;;;;;2.27;0.90;;;;;;;24.06;45.21;99262.13;5043885;27;103746;-72
2022/05/21 09:55:58;;;;;;;2.35;1.08;;;;;;;23.41;47.41;99262.66;5045622;27;103150;-71
2022/05/21 09:58:27;;;;;;;1.98;1.10;;;;;;;23.49;46.83;99262.63;5041178;27;103022;-74
2022/05/21 10:00:57;;;;;;;2.93;1.47;;;;;;;23.22;47.29;99263.09;5043433;27;102853;-73
2022/05/21 10:03:40;;;;;;;3.97;1.17;;;;;;;23.59;46.93;99259.69;5056528;27;103283;-73
2022/05/21 10:06:18;;;;;;;3.30;1.20;;;;;;;23.29;46.78;99264.06;5045583;27;103190;-73
2022/05/21 10:11:42;;;;;;;2.28;1.05;;;;;;;22.55;48.71;99259.16;5043041;27;103033;-73
2022/05/21 10:14:17;;;;;;;2.03;1.00;;;;;;;23.35;45.81;99268.75;5039949;27;103280;-73
2022/05/21 10:16:49;;;;;;;3.80;1.20;;;;;;;22.88;46.77;99263.44;5039409;27;103162;-73
2022/05/21 10:19:23;;;;;;;2.70;0.90;;;;;;;24.32;44.56;99249.09;5027698;27;102697;-73
2022/05/21 10:22:01;;;;;;;2.40;0.93;;;;;;;23.72;45.77;99259.09;5046177;27;103735;-74
2022/05/21 10:24:41;;;;;;;1.55;1.00;;;;;;;22.96;47.67;99254.50;5045657;27;103633;-73
2022/05/21 10:27:20;;;;;;;2.50;0.93;;;;;;;22.35;48.68;99247.94;5025128;27;103358;-73
2022/05/21 10:30:03;;;;;;;2.53;0.80;;;;;;;24.75;45.69;99248.25;5043548;27;102715;-73
2022/05/21 10:32:57;;;;;;;3.50;1.27;;;;;;;25.20;43.04;99236.38;5027344;27;103725;-73
2022/05/21 10:35:40;;;;;;;3.47;1.40;;;;;;;25.73;42.44;99235.06;5028560;27;103188;-70
2022/05/21 10:38:28;;;;;;;3.00;1.40;;;;;;;26.07;41.33;99230.75;5042082;27;103181;-73
2022/05/21 10:41:02;;;;;;;3.20;0.90;;;;;;;26.29;41.32;99233.25;5037689;27;102882;-73
2022/05/21 10:43:48;;;;;;;1.65;0.75;;;;;;;25.98;40.87;99229.22;5043988;27;103672;-73
2022/05/21 10:46:27;;;;;;;2.80;1.20;;;;;;;22.98;45.57;99228.22;5043192;27;103564;-73
2022/05/21 10:49:36;;;;;;;2.00;1.05;;;;;;;24.05;45.16;99222.69;5040086;27;103116;-71
2022/05/21 10:52:12;;;;;;;1.83;1.00;;;;;;;22.59;46.52;99221.97;5025481;27;105217;-71
2022/05/21 10:55:02;;;;;;;2.22;1.13;;;;;;;24.20;45.76;99223.56;5044509;27;102682;-73
2022/05/21 10:57:45;;;;;;;1.70;1.10;;;;;;;23.65;44.00;99215.81;5026357;27;104248;-73
2022/05/21 11:00:17;;;;;;;2.75;1.17;;;;;;;23.00;46.52;99207.31;5046198;27;103193;-73
2022/05/21 11:03:18;;;;;;;3.72;1.00;;;;;;;24.32;44.94;99207.75;5047404;27;102783;-73
2022/05/21 11:06:19;;;;;;;3.47;0.90;;;;;;;24.97;43.93;99197.84;5048988;27;103716;-71
2022/05/21 11:09:02;;;;;;;2.60;0.95;;;;;;;25.76;41.46;99194.09;5009960;27;103565;-73
2022/05/21 11:11:40;;;;;;;2.65;1.00;;;;;;;26.03;41.58;99195.09;5046663;27;103186;-73
2022/05/21 11:14:15;;;;;;;3.17;1.30;;;;;;;24.30;42.25;99194.44;5050994;27;102831;-73
2022/05/21 11:16:48;;;;;;;4.50;1.40;;;;;;;23.70;44.43;99201.75;5047498;27;103077;-73
2022/05/21 11:19:21;;;;;;;3.50;1.20;;;;;;;24.70;43.60;99188.53;5044427;27;103587;-73
2022/05/21 11:21:58;;;;;;;3.35;1.00;;;;;;;24.84;43.46;99196.84;5047598;27;103460;-73
2022/05/21 11:24:35;;;;;;;2.65;1.30;;;;;;;24.31;43.49;99209.59;5052637;27;102945;-73
2022/05/21 11:27:11;;;;;;;1.53;0.80;;;;;;;24.58;41.00;99198.16;5029670;27;103742;-73
2022/05/21 11:29:46;;;;;;;2.85;1.13;;;;;;;23.63;43.09;99194.41;5048330;27;103335;-71
2022/05/21 11:37:57;;;;;;;2.50;1.13;;;;;;;24.77;42.36;99191.31;5047950;27;103834;-74
2022/05/21 11:46:46;;;;;;;3.05;1.10;;;;;;;23.24;45.12;99191.00;5024903;27;102926;-74
2022/05/21 11:49:31;;;;;;;2.22;1.00;;;;;;;23.89;44.64;99190.47;5049824;27;104241;-73
2022/05/21 11:52:19;;;;;;;2.80;1.38;;;;;;;22.96;44.77;99192.53;5039398;27;103405;-74
2022/05/21 11:55:04;;;;;;;2.65;1.00;;;;;;;23.49;45.24;99184.44;5024406;27;103351;-75
2022/05/21 11:57:34;;;;;;;1.83;1.10;;;;;;;25.37;41.30;99177.47;5050565;27;102830;-74
2022/05/21 12:00:06;;;;;;;2.97;1.10;;;;;;;24.34;43.05;99179.53;5041220;27;103629;-74
2022/05/21 12:03:12;;;;;;;3.07;1.17;;;;;;;24.30;43.52;99174.72;5024292;27;103663;-74
2022/05/21 12:06:28;;;;;;;2.70;1.13;;;;;;;25.11;39.57;99175.34;5048526;27;103204;-74
2022/05/21 12:09:23;;;;;;;2.07;0.87;;;;;;;26.34;38.42;99164.94;5037582;27;102850;-74
2022/05/21 12:12:13;;;;;;;2.30;1.00;;;;;;;26.00;40.26;99173.00;5029687;27;102888;-74
2022/05/21 12:14:50;;;;;;;2.75;1.10;;;;;;;25.61;40.23;99163.56;5022949;27;104205;-74
2022/05/21 12:17:42;;;;;;;2.50;1.10;;;;;;;26.85;40.07;99168.94;5038832;27;103247;-74
2022/05/21 12:20:11;;;;;;;1.90;0.88;;;;;;;25.32;41.11;99169.06;5044186;27;103134;-74
2022/05/21 12:22:46;;;;;;;3.45;1.30;;;;;;;23.63;43.56;99170.13;5028139;27;102761;-74
2022/05/21 12:25:57;;;;;;;2.00;1.08;;;;;;;24.07;43.92;99174.75;5039983;27;103898;-75
2022/05/21 12:28:37;;;;;;;3.57;1.43;;;;;;;23.99;43.83;99164.06;5035471;27;103187;-74
2022/05/21 12:31:09;;;;;;;5.22;1.20;;;;;;;24.04;44.23;99164.34;5037108;27;102947;-74